createdAt,value
2023-04-16T00:03:06.941Z,7.56
2023-04-16T00:08:25.356Z,7.5
2023-04-16T00:13:43.944Z,7.5
2023-04-16T00:19:03.807Z,7.5
2023-04-16T00:24:23.695Z,7.56
2023-04-16T00:29:43.589Z,7.5
2023-04-16T00:40:00.641Z,7.5
2023-04-16T00:45:19.300Z,7.5
2023-04-16T00:50:40.338Z,7.5
2023-04-16T00:56:00.455Z,7.56
2023-04-16T01:01:20.602Z,7.56
2023-04-16T01:06:39.290Z,7.5
2023-04-16T01:16:56.503Z,7.5
2023-04-16T01:22:16.053Z,7.5
2023-04-16T01:27:36.191Z,7.5
2023-04-16T01:37:55.615Z,7.5
2023-04-16T01:43:15.647Z,7.44
2023-04-16T01:48:34.159Z,7.44
2023-04-16T01:53:53.814Z,7.44
2023-04-16T02:04:12.198Z,7.44
2023-04-16T02:09:30.809Z,7.44
2023-04-16T02:14:51.360Z,7.37
2023-04-16T02:20:11.459Z,7.37
2023-04-16T02:25:30.663Z,7.31
2023-04-16T02:30:49.489Z,7.31
2023-04-16T02:36:10.280Z,7.31
2023-04-16T02:41:28.993Z,7.31
2023-04-16T02:46:47.452Z,7.31
2023-04-16T02:52:07.064Z,7.31
2023-04-16T03:02:24.703Z,7.25
2023-04-16T03:07:43.909Z,7.31
2023-04-16T03:13:02.940Z,7.31
2023-04-16T03:23:20.304Z,7.31
2023-04-16T03:33:40.315Z,7.31
2023-04-16T03:43:58.240Z,7.31
2023-04-16T03:49:18.195Z,7.31
2023-04-16T03:54:37.328Z,7.31
2023-04-16T04:04:54.908Z,7.31
2023-04-16T04:15:11.979Z,7.25
2023-04-16T04:20:30.288Z,7.25
2023-04-16T04:25:49.097Z,7.31
2023-04-16T04:31:07.693Z,7.25
2023-04-16T04:36:26.446Z,7.25
2023-04-16T04:41:44.814Z,7.31
2023-04-16T04:47:03.010Z,7.31
2023-04-16T04:52:21.651Z,7.31
2023-04-16T05:02:39.396Z,7.37
2023-04-16T05:08:00.220Z,7.31
2023-04-16T05:13:19.162Z,7.31
2023-04-16T05:28:43.078Z,7.37
2023-04-16T05:34:01.676Z,7.44
2023-04-16T05:39:20.314Z,7.5
2023-04-16T05:49:37.443Z,7.56
2023-04-16T05:54:56.226Z,7.62
2023-04-16T06:00:14.721Z,7.56
2023-04-16T06:05:32.981Z,7.56
2023-04-16T06:10:51.216Z,7.5
2023-04-16T06:16:11.142Z,7.56
2023-04-16T06:21:30.952Z,7.56
2023-04-16T06:26:52.317Z,7.56
2023-04-16T06:32:11.265Z,7.56
2023-04-16T06:37:30.049Z,7.56
2023-04-16T06:42:48.845Z,7.56
2023-04-16T06:48:07.833Z,7.56
2023-04-16T06:53:26.873Z,7.69
2023-04-16T06:58:45.931Z,7.69
2023-04-16T07:09:02.805Z,7.75
2023-04-16T07:14:21.430Z,7.75
2023-04-16T07:19:41.515Z,7.75
2023-04-16T07:29:58.739Z,7.94
2023-04-16T07:40:16.555Z,8.25
2023-04-16T07:45:35.381Z,8.5
2023-04-16T07:50:53.902Z,8.63
2023-04-16T08:01:12.595Z,8.88
2023-04-16T08:11:30.246Z,8.88
2023-04-16T08:21:47.718Z,8.88
2023-04-16T08:27:17.629Z,8.88
2023-04-16T08:32:24.501Z,8.88
2023-04-16T08:37:42.808Z,8.88
2023-04-16T08:43:03.371Z,8.81
2023-04-16T08:48:21.970Z,8.63
2023-04-16T08:53:40.669Z,8.56
2023-04-16T08:58:59.323Z,8.63
2023-04-16T09:04:17.819Z,8.81
2023-04-16T09:09:36.558Z,8.94
2023-04-16T09:14:55.270Z,8.81
2023-04-16T09:20:16.041Z,8.63
2023-04-16T09:25:34.676Z,8.63
2023-04-16T09:30:53.301Z,8.5
2023-04-16T09:36:11.928Z,8.56
2023-04-16T09:41:30.712Z,8.63
2023-04-16T09:46:49.268Z,8.75
2023-04-16T09:52:07.922Z,8.56
2023-04-16T09:57:26.642Z,8.69
2023-04-16T10:02:45.263Z,8.63
2023-04-16T10:08:03.740Z,8.5
2023-04-16T10:13:22.458Z,8.5
2023-04-16T10:18:42.060Z,8.63
2023-04-16T10:24:00.400Z,8.5
2023-04-16T10:29:18.797Z,8.63
2023-04-16T10:34:37.059Z,8.63
2023-04-16T10:39:55.801Z,8.69
2023-04-16T10:45:14.286Z,8.69
2023-04-16T10:50:33.190Z,8.75
2023-04-16T10:55:53.023Z,8.81
2023-04-16T11:01:11.832Z,8.88
2023-04-16T11:06:30.492Z,8.81
2023-04-16T11:16:55.799Z,8.94
2023-04-16T11:22:14.062Z,8.88
2023-04-16T11:27:32.312Z,8.81
2023-04-16T11:32:51.120Z,9
2023-04-16T11:38:09.483Z,9.13
2023-04-16T11:43:28.223Z,9.19
2023-04-16T11:48:46.760Z,9.19
2023-04-16T11:54:05.223Z,9.19
2023-04-16T11:59:23.869Z,9.19
2023-04-16T12:04:42.765Z,9.31
2023-04-16T12:10:01.345Z,9.38
2023-04-16T12:15:20.013Z,9.56
2023-04-16T12:20:38.824Z,9.63
2023-04-16T12:25:57.364Z,9.56
2023-04-16T12:36:16.772Z,9.63
2023-04-16T12:41:35.505Z,9.69
2023-04-16T12:46:55.727Z,9.63
2023-04-16T12:52:14.637Z,9.63
2023-04-16T12:57:33.250Z,9.69
2023-04-16T13:02:52.043Z,9.88
2023-04-16T13:08:10.230Z,10
2023-04-16T13:13:29.003Z,10.13
2023-04-16T13:18:47.785Z,10.31
2023-04-16T13:24:06.008Z,10.13
2023-04-16T13:29:24.208Z,10
2023-04-16T13:34:42.866Z,9.81
2023-04-16T13:40:01.474Z,9.75
2023-04-16T13:45:20.091Z,9.69
2023-04-16T13:50:38.706Z,9.75
2023-04-16T13:55:57.360Z,9.75
2023-04-16T14:01:16.041Z,9.75
2023-04-16T14:06:34.076Z,9.69
2023-04-16T14:11:52.800Z,9.81
2023-04-16T14:17:11.272Z,9.75
2023-04-16T14:22:29.907Z,9.56
2023-04-16T14:27:48.639Z,9.56
2023-04-16T14:33:07.206Z,9.63
2023-04-16T14:38:25.925Z,9.63
2023-04-16T14:43:44.632Z,9.44
2023-04-16T14:49:03.130Z,9.56
2023-04-16T14:54:21.806Z,9.69
2023-04-16T14:59:40.152Z,9.88
2023-04-16T15:04:58.706Z,9.94
2023-04-16T15:10:17.291Z,9.88
2023-04-16T15:15:35.950Z,9.75
2023-04-16T15:20:56.515Z,9.81
2023-04-16T15:26:15.333Z,9.81
2023-04-16T15:31:34.347Z,9.94
2023-04-16T15:36:52.936Z,10
2023-04-16T15:42:11.531Z,9.94
2023-04-16T15:47:30.220Z,9.88
2023-04-16T15:52:48.716Z,9.81
2023-04-16T15:58:07.351Z,9.81
2023-04-16T16:03:25.842Z,9.88
2023-04-16T16:08:44.810Z,9.88
2023-04-16T16:14:03.535Z,9.88
2023-04-16T16:19:22.170Z,9.81
2023-04-16T16:24:40.848Z,9.75
2023-04-16T16:29:59.395Z,9.69
2023-04-16T16:35:17.507Z,9.63
2023-04-16T16:40:36.154Z,9.63
2023-04-16T16:45:54.774Z,9.63
2023-04-16T16:51:15.423Z,9.63
2023-04-16T16:56:34.068Z,9.56
2023-04-16T17:01:52.808Z,9.5
2023-04-16T17:07:11.510Z,9.5
2023-04-16T17:12:30.093Z,9.56
2023-04-16T17:17:48.934Z,9.5
2023-04-16T17:23:07.527Z,9.5
2023-04-16T17:28:26.209Z,9.44
2023-04-16T17:33:44.907Z,9.31
2023-04-16T17:39:03.173Z,9.31
2023-04-16T17:44:22.011Z,9.25
2023-04-16T17:49:40.729Z,9.25
2023-04-16T17:54:59.128Z,9.25
2023-04-16T18:00:17.652Z,9.19
2023-04-16T18:05:36.142Z,9.13
2023-04-16T18:10:54.355Z,9.06
2023-04-16T18:16:12.878Z,9.06
2023-04-16T18:21:31.429Z,8.94
2023-04-16T18:26:49.811Z,8.94
2023-04-16T18:32:10.486Z,9
2023-04-16T18:37:26.465Z,8.94
2023-04-16T18:42:44.806Z,8.94
2023-04-16T18:48:03.040Z,8.94
2023-04-16T18:58:20.591Z,8.88
2023-04-16T19:03:39.298Z,8.81
2023-04-16T19:08:58.886Z,8.75
2023-04-16T19:14:17.632Z,8.75
2023-04-16T19:19:36.289Z,8.69
2023-04-16T19:24:54.869Z,8.75
2023-04-16T19:30:13.608Z,8.69
2023-04-16T19:35:32.380Z,8.63
2023-04-16T19:40:50.759Z,8.63
2023-04-16T19:46:09.408Z,8.63
2023-04-16T19:51:27.850Z,8.56
2023-04-16T19:56:46.622Z,8.5
2023-04-16T20:02:05.474Z,8.5
2023-04-16T20:07:24.013Z,8.5
2023-04-16T20:12:42.807Z,8.5
2023-04-16T20:18:01.577Z,8.56
2023-04-16T20:23:19.829Z,8.5
2023-04-16T20:28:38.635Z,8.56
2023-04-16T20:33:57.407Z,8.56
2023-04-16T20:39:15.977Z,8.5
2023-04-16T20:44:34.664Z,8.5
2023-04-16T20:49:53.381Z,8.5
2023-04-16T20:55:12.030Z,8.5
2023-04-16T21:00:30.637Z,8.44
2023-04-16T21:05:49.385Z,8.44
2023-04-16T21:11:07.995Z,8.5
2023-04-16T21:16:27.628Z,8.5
2023-04-16T21:21:45.994Z,8.44
2023-04-16T21:27:05.694Z,8.38
2023-04-16T21:32:24.490Z,8.25
2023-04-16T21:37:43.041Z,8.19
2023-04-16T21:43:01.673Z,8.19
2023-04-16T21:48:20.424Z,8.13
2023-04-16T21:53:39.206Z,8.06
2023-04-16T21:58:57.757Z,8.06
2023-04-16T22:04:17.442Z,8.06
2023-04-16T22:09:35.767Z,8.06
2023-04-16T22:15:02.224Z,8.06
2023-04-16T22:20:13.196Z,8.06
2023-04-16T22:25:31.826Z,8.19
2023-04-16T22:30:50.436Z,8.19
2023-04-16T22:36:08.818Z,8.13
2023-04-16T22:41:27.161Z,8.13
2023-04-16T22:46:45.715Z,8.06
2023-04-16T22:52:04.070Z,8.13
2023-04-16T22:57:22.694Z,8.13
2023-04-16T23:02:41.405Z,8.06
2023-04-16T23:08:00.167Z,8.06
2023-04-16T23:18:25.897Z,8
2023-04-16T23:23:44.101Z,8.13
2023-04-16T23:29:03.097Z,8.19
2023-04-16T23:34:21.403Z,8.19
2023-04-16T23:39:39.989Z,8.25
2023-04-16T23:44:58.306Z,8.25
2023-04-16T23:50:17.044Z,8.31
2023-04-16T23:55:38.106Z,8.38
